Time;durP1;ratioP1;P1;durP2;ratioP2;P2;SDS_P1;SDS_P2;PMS_P1;PMS_P2;Temp;Humidity;BMP_temperature;BMP_pressure;BME280_temperature;BME280_humidity;BME280_pressure;Samples;Min_cycle;Max_cycle;Signal;HPM_P1;HPM_P2
2024/01/09 00:01:05;;;;;;;4.40;2.53;;;;;;;;;;5008200;28;20204;-70
2024/01/09 00:03:31;;;;;;;3.40;2.20;;;;;;;;;;5007978;28;20674;-70
2024/01/09 00:05:56;;;;;;;5.00;2.93;;;;;;;;;;5007235;28;20179;-70
2024/01/09 00:08:21;;;;;;;3.07;2.30;;;;;;;;;;4991506;28;20297;-70
2024/01/09 00:10:46;;;;;;;5.63;3.10;;;;;;;;;;5010564;28;20271;-70
2024/01/09 00:13:12;;;;;;;5.90;2.80;;;;;;;;;;5005783;28;20264;-70
2024/01/09 00:15:37;;;;;;;5.53;2.50;;;;;;;;;;5008515;28;20236;-69
2024/01/09 00:18:02;;;;;;;6.60;2.83;;;;;;;;;;5004968;28;20179;-70
2024/01/09 00:20:27;;;;;;;5.10;3.03;;;;;;;;;;5007649;28;20654;-70
2024/01/09 00:22:53;;;;;;;4.37;2.90;;;;;;;;;;5007454;28;20685;-71
2024/01/09 00:25:19;;;;;;;4.23;3.07;;;;;;;;;;5008480;28;20179;-70
2024/01/09 00:27:44;;;;;;;4.07;3.07;;;;;;;;;;5006275;28;20175;-70
2024/01/09 00:30:09;;;;;;;5.90;2.90;;;;;;;;;;4991406;28;20205;-69
2024/01/09 00:32:35;;;;;;;3.33;2.77;;;;;;;;;;4991055;28;20253;-70
2024/01/09 00:35:01;;;;;;;5.00;2.77;;;;;;;;;;5003632;28;20572;-70
2024/01/09 00:37:26;;;;;;;5.33;3.43;;;;;;;;;;4984816;28;20184;-69
2024/01/09 00:39:51;;;;;;;4.27;2.50;;;;;;;;;;5008367;28;20189;-69
2024/01/09 00:42:17;;;;;;;4.37;2.90;;;;;;;;;;5010640;28;20195;-70
2024/01/09 00:44:42;;;;;;;3.17;2.40;;;;;;;;;;5005233;28;20182;-69
2024/01/09 00:47:07;;;;;;;3.83;2.67;;;;;;;;;;5010649;28;20654;-69
2024/01/09 00:49:32;;;;;;;4.93;2.97;;;;;;;;;;4993751;28;20225;-70
2024/01/09 00:51:58;;;;;;;7.90;2.97;;;;;;;;;;4990728;28;20199;-70
2024/01/09 00:54:23;;;;;;;6.20;2.40;;;;;;;;;;5004851;28;20695;-69
2024/01/09 00:56:48;;;;;;;5.67;2.70;;;;;;;;;;5004604;28;20686;-70
2024/01/09 00:59:13;;;;;;;5.30;2.97;;;;;;;;;;5004833;28;20597;-69
2024/01/09 01:01:38;;;;;;;4.83;2.67;;;;;;;;;;5010645;28;20251;-69
2024/01/09 01:04:04;;;;;;;4.20;2.37;;;;;;;;;;5009491;28;20265;-69
2024/01/09 01:06:29;;;;;;;4.07;2.63;;;;;;;;;;4999458;28;20262;-70
2024/01/09 01:08:54;;;;;;;3.43;2.63;;;;;;;;;;5008626;28;20242;-71
2024/01/09 01:11:19;;;;;;;5.63;2.90;;;;;;;;;;5010449;28;20218;-69
2024/01/09 01:13:45;;;;;;;5.67;2.50;;;;;;;;;;5005457;28;20190;-70
2024/01/09 01:16:10;;;;;;;3.67;2.40;;;;;;;;;;4985713;28;20175;-70
2024/01/09 01:18:35;;;;;;;4.70;2.33;;;;;;;;;;4989799;28;20666;-69
2024/01/09 01:21:00;;;;;;;2.80;2.27;;;;;;;;;;5002554;28;20194;-68
2024/01/09 01:23:25;;;;;;;4.60;2.50;;;;;;;;;;5007155;28;20201;-69
2024/01/09 01:25:51;;;;;;;5.27;2.70;;;;;;;;;;5007404;28;20175;-69
2024/01/09 01:28:16;;;;;;;4.07;2.43;;;;;;;;;;5008624;28;20207;-70
2024/01/09 01:30:41;;;;;;;4.90;2.47;;;;;;;;;;5010674;28;20179;-70
2024/01/09 01:33:06;;;;;;;3.20;1.90;;;;;;;;;;5009714;28;20199;-69
2024/01/09 01:35:31;;;;;;;5.60;2.67;;;;;;;;;;5004179;28;20186;-69
2024/01/09 01:37:57;;;;;;;4.07;2.53;;;;;;;;;;5005744;28;20225;-69
2024/01/09 01:40:22;;;;;;;5.17;2.70;;;;;;;;;;5014197;28;20634;-70
2024/01/09 01:42:47;;;;;;;4.33;2.60;;;;;;;;;;5006566;28;20630;-70
2024/01/09 01:45:16;;;;;;;7.10;2.60;;;;;;;;;;5007826;28;20179;-69
2024/01/09 01:47:45;;;;;;;4.07;2.20;;;;;;;;;;5007153;28;20229;-69
2024/01/09 01:50:11;;;;;;;5.23;2.97;;;;;;;;;;5006905;28;20317;-70
2024/01/09 01:52:36;;;;;;;4.20;2.20;;;;;;;;;;5007368;28;20282;-70
2024/01/09 01:55:01;;;;;;;4.87;2.37;;;;;;;;;;5009034;28;20187;-70
2024/01/09 01:57:27;;;;;;;3.63;2.40;;;;;;;;;;5005753;28;20171;-70
2024/01/09 01:59:52;;;;;;;4.27;2.80;;;;;;;;;;5006742;28;20704;-69
2024/01/09 02:02:17;;;;;;;4.00;2.30;;;;;;;;;;4990875;28;20765;-70
2024/01/09 02:04:43;;;;;;;4.27;2.50;;;;;;;;;;5008746;28;20558;-70
2024/01/09 02:07:09;;;;;;;3.33;2.40;;;;;;;;;;5008733;28;20266;-69
2024/01/09 02:09:36;;;;;;;4.87;2.37;;;;;;;;;;5009195;28;20690;-70
2024/01/09 02:12:01;;;;;;;3.67;2.53;;;;;;;;;;5029836;22;20241;-66
2024/01/09 02:14:26;;;;;;;5.07;3.03;;;;;;;;;;5010142;28;20175;-66
2024/01/09 02:16:52;;;;;;;5.37;2.63;;;;;;;;;;5010120;28;20167;-66
2024/01/09 02:19:17;;;;;;;4.00;2.30;;;;;;;;;;5012892;28;20202;-66
2024/01/09 02:21:42;;;;;;;2.37;1.87;;;;;;;;;;5010701;28;20202;-66
2024/01/09 02:24:07;;;;;;;4.53;2.40;;;;;;;;;;5011552;28;20186;-66
2024/01/09 02:26:35;;;;;;;4.50;2.50;;;;;;;;;;5006820;28;20214;-66
2024/01/09 02:29:04;;;;;;;4.10;2.73;;;;;;;;;;5011262;28;20309;-66
2024/01/09 02:31:29;;;;;;;3.87;2.27;;;;;;;;;;5010007;28;20194;-65
2024/01/09 02:33:54;;;;;;;4.27;2.60;;;;;;;;;;5016805;28;20183;-66
2024/01/09 02:36:19;;;;;;;3.33;2.47;;;;;;;;;;5009275;28;20182;-65
2024/01/09 02:38:45;;;;;;;4.23;2.30;;;;;;;;;;5013902;28;20504;-66
2024/01/09 02:41:10;;;;;;;5.53;2.33;;;;;;;;;;5012048;28;20286;-65
2024/01/09 02:43:35;;;;;;;4.30;2.10;;;;;;;;;;5007129;28;20734;-66
2024/01/09 02:46:00;;;;;;;4.83;1.93;;;;;;;;;;5009707;28;20191;-66
2024/01/09 02:48:25;;;;;;;5.73;2.50;;;;;;;;;;5016597;28;20202;-66
2024/01/09 02:50:51;;;;;;;4.87;2.37;;;;;;;;;;5013200;28;20175;-65
2024/01/09 02:53:16;;;;;;;5.57;2.87;;;;;;;;;;5013605;28;20197;-67
2024/01/09 02:55:41;;;;;;;4.57;2.60;;;;;;;;;;5009311;28;20198;-66
2024/01/09 02:58:06;;;;;;;4.67;2.47;;;;;;;;;;5014481;28;20252;-64
2024/01/09 03:00:31;;;;;;;3.37;2.17;;;;;;;;;;5014336;28;20171;-64
2024/01/09 03:02:57;;;;;;;3.43;2.27;;;;;;;;;;5019928;28;20198;-66
2024/01/09 03:05:22;;;;;;;4.80;2.53;;;;;;;;;;5011996;28;20203;-66
2024/01/09 03:07:47;;;;;;;3.03;2.27;;;;;;;;;;5017110;28;20258;-65
2024/01/09 03:10:13;;;;;;;3.87;2.60;;;;;;;;;;5015515;28;20290;-66
2024/01/09 03:12:38;;;;;;;6.53;2.63;;;;;;;;;;5012077;28;20214;-66
2024/01/09 03:15:03;;;;;;;3.73;2.33;;;;;;;;;;5014497;28;20175;-66
2024/01/09 03:17:29;;;;;;;6.63;2.60;;;;;;;;;;4996174;28;20185;-67
2024/01/09 03:19:54;;;;;;;3.63;2.30;;;;;;;;;;5000422;28;20179;-66
2024/01/09 03:22:19;;;;;;;4.53;2.30;;;;;;;;;;5013965;28;20226;-66
2024/01/09 03:24:44;;;;;;;4.97;2.40;;;;;;;;;;5015447;28;20240;-65
2024/01/09 03:27:09;;;;;;;5.57;2.70;;;;;;;;;;5010315;28;20537;-66
2024/01/09 03:29:35;;;;;;;3.80;2.63;;;;;;;;;;5012892;28;20266;-65
2024/01/09 03:32:00;;;;;;;2.67;2.13;;;;;;;;;;5009158;28;20202;-67
2024/01/09 03:34:25;;;;;;;4.57;2.43;;;;;;;;;;4995758;28;20564;-67
2024/01/09 03:36:50;;;;;;;3.13;2.30;;;;;;;;;;5012910;28;20541;-66
2024/01/09 03:39:15;;;;;;;4.67;2.60;;;;;;;;;;5011388;28;20197;-66
2024/01/09 03:41:44;;;;;;;5.67;2.83;;;;;;;;;;5012221;28;20195;-66
2024/01/09 03:44:09;;;;;;;4.13;2.50;;;;;;;;;;5008836;28;20693;-67
2024/01/09 03:46:35;;;;;;;3.97;2.60;;;;;;;;;;5010985;28;20186;-67
2024/01/09 03:49:00;;;;;;;5.43;1.90;;;;;;;;;;5012571;28;20206;-66
2024/01/09 03:51:25;;;;;;;7.30;2.90;;;;;;;;;;5014725;28;20181;-67
2024/01/09 03:53:51;;;;;;;4.73;2.40;;;;;;;;;;5012981;28;20183;-66
2024/01/09 03:56:16;;;;;;;5.50;2.40;;;;;;;;;;4994487;28;20182;-66
2024/01/09 03:58:41;;;;;;;4.53;2.10;;;;;;;;;;5009679;28;20262;-67
2024/01/09 04:01:06;;;;;;;4.50;2.17;;;;;;;;;;5012716;28;20175;-66
2024/01/09 04:03:32;;;;;;;5.57;2.83;;;;;;;;;;5014160;28;20284;-67
2024/01/09 04:05:57;;;;;;;4.47;2.87;;;;;;;;;;5010445;28;20218;-66
2024/01/09 04:08:22;;;;;;;5.20;2.77;;;;;;;;;;5017285;28;20302;-67
2024/01/09 04:10:47;;;;;;;4.10;2.30;;;;;;;;;;5011464;28;20547;-67
2024/01/09 04:13:13;;;;;;;5.40;2.97;;;;;;;;;;5011053;28;20590;-66
2024/01/09 04:15:38;;;;;;;6.00;2.53;;;;;;;;;;5010541;28;20647;-66
2024/01/09 04:18:04;;;;;;;3.70;2.63;;;;;;;;;;5012044;28;20175;-66
2024/01/09 04:20:29;;;;;;;4.67;2.80;;;;;;;;;;5016206;28;20175;-67
2024/01/09 04:22:54;;;;;;;5.43;2.80;;;;;;;;;;5008655;28;20218;-66
2024/01/09 04:25:19;;;;;;;4.93;1.97;;;;;;;;;;5016255;28;20230;-65
2024/01/09 04:27:44;;;;;;;6.00;2.90;;;;;;;;;;5012173;28;20258;-65
2024/01/09 04:30:10;;;;;;;4.47;2.57;;;;;;;;;;5011086;28;20199;-67
2024/01/09 04:32:35;;;;;;;4.70;2.87;;;;;;;;;;5011781;28;20194;-67
2024/01/09 04:35:00;;;;;;;5.60;2.83;;;;;;;;;;5010432;28;20179;-67
2024/01/09 04:37:26;;;;;;;4.23;2.77;;;;;;;;;;5011098;28;20178;-66
2024/01/09 04:39:51;;;;;;;4.43;3.00;;;;;;;;;;5008471;28;20175;-67
2024/01/09 04:42:16;;;;;;;7.07;2.80;;;;;;;;;;5009856;28;20749;-67
2024/01/09 04:44:41;;;;;;;6.60;2.87;;;;;;;;;;5009329;28;20187;-67
2024/01/09 04:47:06;;;;;;;6.77;2.90;;;;;;;;;;5005774;28;20186;-66
2024/01/09 04:49:32;;;;;;;6.50;3.17;;;;;;;;;;5009974;28;20596;-66
2024/01/09 04:51:57;;;;;;;6.40;2.87;;;;;;;;;;5011011;28;20673;-67
2024/01/09 04:54:22;;;;;;;3.17;2.03;;;;;;;;;;4996338;28;20207;-67
2024/01/09 04:56:47;;;;;;;5.90;3.17;;;;;;;;;;4993653;28;20453;-67
2024/01/09 04:59:12;;;;;;;3.80;2.60;;;;;;;;;;5010241;28;20233;-66
2024/01/09 05:01:38;;;;;;;5.33;3.33;;;;;;;;;;5009174;28;20205;-65
2024/01/09 05:04:03;;;;;;;6.13;2.87;;;;;;;;;;5011662;28;20174;-67
2024/01/09 05:06:28;;;;;;;5.40;3.27;;;;;;;;;;5007562;28;20193;-66
2024/01/09 05:08:53;;;;;;;4.37;2.43;;;;;;;;;;5010451;28;20210;-66
2024/01/09 05:11:18;;;;;;;5.60;2.93;;;;;;;;;;5016474;28;20206;-67
2024/01/09 05:13:44;;;;;;;7.23;3.63;;;;;;;;;;5009079;28;20190;-67
2024/01/09 05:16:09;;;;;;;5.77;2.73;;;;;;;;;;5010384;28;20258;-66
2024/01/09 05:18:34;;;;;;;4.63;2.60;;;;;;;;;;4992519;28;20240;-66
2024/01/09 05:20:59;;;;;;;4.50;3.00;;;;;;;;;;5012520;28;20270;-67
2024/01/09 05:23:25;;;;;;;6.13;2.60;;;;;;;;;;5006230;28;20195;-66
2024/01/09 05:25:50;;;;;;;3.73;2.80;;;;;;;;;;5007172;28;20207;-66
2024/01/09 05:28:15;;;;;;;4.40;3.00;;;;;;;;;;5010857;28;20203;-67
2024/01/09 05:30:41;;;;;;;3.73;2.73;;;;;;;;;;5010029;28;20178;-66
2024/01/09 05:33:06;;;;;;;6.73;2.70;;;;;;;;;;5010100;28;20205;-67
2024/01/09 05:35:31;;;;;;;5.00;2.43;;;;;;;;;;5012009;28;20197;-67
2024/01/09 05:37:57;;;;;;;4.17;2.13;;;;;;;;;;4993968;28;20720;-67
2024/01/09 05:40:22;;;;;;;9.97;3.20;;;;;;;;;;5011836;28;20261;-66
2024/01/09 05:42:47;;;;;;;4.80;2.30;;;;;;;;;;5006645;28;20333;-67
2024/01/09 05:45:13;;;;;;;4.80;3.43;;;;;;;;;;5011844;28;20171;-67
2024/01/09 05:47:38;;;;;;;3.60;2.30;;;;;;;;;;5008824;28;20198;-66
2024/01/09 05:50:04;;;;;;;5.37;3.27;;;;;;;;;;5008341;28;20209;-66
2024/01/09 05:52:30;;;;;;;6.80;2.90;;;;;;;;;;5011171;28;20202;-67
2024/01/09 05:54:55;;;;;;;3.87;2.30;;;;;;;;;;5014385;28;20619;-67
2024/01/09 05:57:20;;;;;;;4.10;2.73;;;;;;;;;;5010119;28;20171;-65
2024/01/09 05:59:46;;;;;;;7.93;2.83;;;;;;;;;;5000206;28;20171;-66
2024/01/09 06:02:11;;;;;;;5.27;3.07;;;;;;;;;;5013616;28;20190;-66
2024/01/09 06:04:36;;;;;;;6.93;3.60;;;;;;;;;;5013713;28;20638;-67
2024/01/09 06:07:01;;;;;;;5.97;3.53;;;;;;;;;;5009085;28;20290;-66
2024/01/09 06:09:26;;;;;;;8.63;4.13;;;;;;;;;;5006662;28;20285;-67
2024/01/09 06:11:52;;;;;;;12.73;5.57;;;;;;;;;;5008348;28;20224;-65
2024/01/09 06:14:17;;;;;;;10.10;5.47;;;;;;;;;;4992968;28;20570;-66
2024/01/09 06:16:42;;;;;;;11.20;5.10;;;;;;;;;;5008239;28;20176;-66
2024/01/09 06:19:08;;;;;;;10.77;5.10;;;;;;;;;;5013052;28;20185;-66
2024/01/09 06:21:33;;;;;;;15.27;6.07;;;;;;;;;;5014780;28;20206;-66
2024/01/09 06:23:58;;;;;;;8.73;4.40;;;;;;;;;;5011790;28;20766;-65
2024/01/09 06:26:23;;;;;;;5.43;3.53;;;;;;;;;;5011287;28;20281;-67
2024/01/09 06:28:49;;;;;;;4.23;2.90;;;;;;;;;;5010525;28;20213;-66
2024/01/09 06:31:14;;;;;;;5.90;3.10;;;;;;;;;;5014092;28;20179;-65
2024/01/09 06:33:39;;;;;;;9.93;2.97;;;;;;;;;;5018139;28;20754;-67
2024/01/09 06:36:05;;;;;;;4.33;3.00;;;;;;;;;;5016017;28;20186;-66
2024/01/09 06:38:30;;;;;;;4.90;2.80;;;;;;;;;;5012909;28;20663;-66
2024/01/09 06:40:55;;;;;;;5.50;3.27;;;;;;;;;;5013103;28;20175;-66
2024/01/09 06:43:20;;;;;;;6.93;3.10;;;;;;;;;;5011057;28;20256;-66
2024/01/09 06:45:45;;;;;;;6.20;3.37;;;;;;;;;;5012601;28;20269;-66
2024/01/09 06:48:11;;;;;;;6.43;3.20;;;;;;;;;;5011092;28;21454;-66
2024/01/09 06:50:36;;;;;;;7.63;3.10;;;;;;;;;;5010328;28;20175;-66
2024/01/09 06:53:01;;;;;;;7.17;3.37;;;;;;;;;;5013427;28;20209;-65
2024/01/09 06:55:27;;;;;;;8.93;3.67;;;;;;;;;;5011602;28;20266;-66
2024/01/09 06:57:52;;;;;;;5.30;3.30;;;;;;;;;;5013580;28;20181;-66
2024/01/09 07:00:18;;;;;;;6.37;3.50;;;;;;;;;;5009824;28;20207;-65
2024/01/09 07:02:44;;;;;;;5.90;3.90;;;;;;;;;;5012361;28;20232;-64
2024/01/09 07:05:09;;;;;;;6.80;3.50;;;;;;;;;;4994254;28;20677;-66
2024/01/09 07:07:35;;;;;;;8.07;3.90;;;;;;;;;;5010135;28;20194;-66
2024/01/09 07:10:00;;;;;;;7.03;2.87;;;;;;;;;;5009926;28;20578;-65
2024/01/09 07:12:25;;;;;;;7.20;3.10;;;;;;;;;;5011666;28;20221;-66
2024/01/09 07:14:50;;;;;;;6.03;2.80;;;;;;;;;;5013379;28;20209;-65
2024/01/09 07:17:16;;;;;;;6.53;3.07;;;;;;;;;;5012081;28;20198;-66
2024/01/09 07:19:41;;;;;;;6.33;3.30;;;;;;;;;;5015046;28;20193;-66
2024/01/09 07:22:06;;;;;;;6.50;3.43;;;;;;;;;;5014200;28;20660;-66
2024/01/09 07:24:31;;;;;;;5.67;3.07;;;;;;;;;;5010565;28;20187;-65
2024/01/09 07:26:56;;;;;;;4.93;3.33;;;;;;;;;;5008035;28;20193;-66
2024/01/09 07:29:22;;;;;;;9.03;3.90;;;;;;;;;;5013302;28;20213;-66
2024/01/09 07:31:47;;;;;;;6.53;3.07;;;;;;;;;;5014935;28;20200;-66
2024/01/09 07:34:12;;;;;;;5.00;3.37;;;;;;;;;;5014130;28;20184;-65
2024/01/09 07:36:38;;;;;;;7.33;3.70;;;;;;;;;;5013418;28;20256;-65
2024/01/09 07:39:05;;;;;;;4.40;2.90;;;;;;;;;;5014936;28;20186;-65
2024/01/09 07:41:30;;;;;;;5.03;3.37;;;;;;;;;;5014464;28;20658;-65
2024/01/09 07:43:56;;;;;;;6.23;3.33;;;;;;;;;;5010008;28;20192;-64
2024/01/09 07:46:21;;;;;;;7.60;3.60;;;;;;;;;;5014728;28;20178;-65
2024/01/09 07:48:46;;;;;;;5.57;2.60;;;;;;;;;;4990720;28;20192;-65
2024/01/09 07:51:11;;;;;;;14.40;3.93;;;;;;;;;;4992799;28;20706;-65
2024/01/09 07:53:36;;;;;;;5.27;3.10;;;;;;;;;;5015667;28;20258;-64
2024/01/09 07:56:02;;;;;;;7.23;3.03;;;;;;;;;;5011068;28;20239;-66
2024/01/09 07:58:27;;;;;;;10.30;5.30;;;;;;;;;;5011820;28;20182;-65
2024/01/09 08:00:53;;;;;;;12.93;6.83;;;;;;;;;;5009335;28;20174;-65
2024/01/09 08:03:18;;;;;;;9.47;4.13;;;;;;;;;;5003668;28;20574;-66
2024/01/09 08:05:44;;;;;;;6.97;4.20;;;;;;;;;;5012073;28;20269;-65
2024/01/09 08:08:09;;;;;;;6.67;3.93;;;;;;;;;;5007936;28;20178;-64
2024/01/09 08:10:34;;;;;;;8.33;4.50;;;;;;;;;;4994610;28;20542;-66
2024/01/09 08:13:00;;;;;;;9.83;4.30;;;;;;;;;;5035588;23;20252;-72
2024/01/09 08:15:25;;;;;;;7.10;3.43;;;;;;;;;;5028013;28;20232;-73
2024/01/09 08:17:50;;;;;;;7.37;3.43;;;;;;;;;;5038937;28;20177;-72
2024/01/09 08:20:16;;;;;;;5.87;3.43;;;;;;;;;;5044856;28;20359;-72
2024/01/09 08:22:41;;;;;;;4.50;2.90;;;;;;;;;;5033136;28;20749;-72
2024/01/09 08:25:06;;;;;;;8.37;3.60;;;;;;;;;;5029405;28;20274;-72
2024/01/09 08:27:32;;;;;;;4.30;2.47;;;;;;;;;;5030119;28;20185;-71
2024/01/09 08:29:57;;;;;;;6.37;2.63;;;;;;;;;;5024707;28;20565;-72
2024/01/09 08:32:22;;;;;;;6.07;3.03;;;;;;;;;;5025492;28;20579;-73
2024/01/09 08:34:48;;;;;;;6.07;3.67;;;;;;;;;;5029538;28;20182;-73
2024/01/09 08:37:13;;;;;;;10.40;3.67;;;;;;;;;;5025619;28;20257;-71
2024/01/09 08:39:38;;;;;;;8.73;4.20;;;;;;;;;;5032102;28;20258;-71
2024/01/09 08:42:03;;;;;;;6.70;4.37;;;;;;;;;;5026369;28;20210;-71
2024/01/09 08:44:29;;;;;;;6.53;3.67;;;;;;;;;;5029744;28;20174;-71
2024/01/09 08:46:54;;;;;;;4.63;2.83;;;;;;;;;;5028842;28;20484;-71
2024/01/09 08:49:20;;;;;;;6.03;2.90;;;;;;;;;;5029664;28;20194;-71
2024/01/09 08:51:45;;;;;;;10.03;3.30;;;;;;;;;;5027332;28;20167;-72
2024/01/09 08:54:10;;;;;;;7.30;2.60;;;;;;;;;;5030337;28;20162;-71
2024/01/09 08:56:35;;;;;;;5.47;2.70;;;;;;;;;;5026455;28;20666;-73
2024/01/09 08:59:01;;;;;;;8.43;3.30;;;;;;;;;;5030881;28;20192;-71
2024/01/09 09:01:26;;;;;;;3.90;2.43;;;;;;;;;;5028683;28;20247;-72
2024/01/09 09:03:51;;;;;;;5.93;3.57;;;;;;;;;;5032615;28;20209;-71
2024/01/09 09:06:17;;;;;;;7.67;3.17;;;;;;;;;;5027145;28;20269;-72
2024/01/09 09:08:42;;;;;;;5.97;3.00;;;;;;;;;;5028843;28;20616;-72
2024/01/09 09:11:07;;;;;;;4.80;2.97;;;;;;;;;;5027619;28;20266;-71
2024/01/09 09:13:33;;;;;;;5.10;2.70;;;;;;;;;;5024165;28;20583;-72
2024/01/09 09:15:58;;;;;;;5.77;4.00;;;;;;;;;;5029515;28;20178;-73
2024/01/09 09:18:23;;;;;;;5.10;3.00;;;;;;;;;;5030548;28;20189;-72
2024/01/09 09:20:48;;;;;;;5.47;3.00;;;;;;;;;;5027911;28;20553;-72
2024/01/09 09:23:13;;;;;;;5.30;2.67;;;;;;;;;;5028886;28;20332;-71
2024/01/09 09:25:39;;;;;;;5.30;2.70;;;;;;;;;;5029684;28;20201;-71
2024/01/09 09:28:04;;;;;;;5.40;2.83;;;;;;;;;;5027792;28;20178;-71
2024/01/09 09:30:29;;;;;;;5.87;2.50;;;;;;;;;;5017111;28;20554;-72
2024/01/09 09:32:58;;;;;;;5.70;2.57;;;;;;;;;;5009339;28;20256;-73
2024/01/09 09:35:23;;;;;;;4.73;2.37;;;;;;;;;;5029546;28;20681;-73
2024/01/09 09:37:48;;;;;;;4.23;3.03;;;;;;;;;;5030287;28;20163;-71
2024/01/09 09:40:13;;;;;;;3.50;1.97;;;;;;;;;;5033214;28;20192;-72
2024/01/09 09:42:41;;;;;;;5.20;2.77;;;;;;;;;;5028619;28;20212;-72
2024/01/09 09:45:09;;;;;;;4.93;2.80;;;;;;;;;;5030229;28;20182;-72
2024/01/09 09:47:34;;;;;;;4.43;1.80;;;;;;;;;;5026642;28;20186;-72
2024/01/09 09:49:59;;;;;;;8.30;2.37;;;;;;;;;;5031603;28;20296;-70
2024/01/09 09:52:26;;;;;;;4.80;3.00;;;;;;;;;;5028427;28;20228;-70
2024/01/09 09:54:51;;;;;;;5.90;3.03;;;;;;;;;;5029950;28;20582;-70
2024/01/09 09:57:17;;;;;;;9.00;3.10;;;;;;;;;;5029692;28;20262;-71
2024/01/09 09:59:42;;;;;;;4.77;2.33;;;;;;;;;;5034045;28;20557;-71
2024/01/09 10:02:10;;;;;;;3.47;2.37;;;;;;;;;;5033118;28;20221;-71
2024/01/09 10:04:46;;;;;;;5.90;2.70;;;;;;;;;;5033376;28;20174;-71
2024/01/09 10:07:14;;;;;;;4.17;3.07;;;;;;;;;;5022238;28;20185;-70
2024/01/09 10:09:43;;;;;;;4.90;2.70;;;;;;;;;;5028776;28;20202;-71
2024/01/09 10:12:09;;;;;;;4.20;2.63;;;;;;;;;;5035259;28;20275;-71
2024/01/09 10:14:34;;;;;;;5.57;2.20;;;;;;;;;;5033700;28;20485;-71
2024/01/09 10:17:03;;;;;;;4.73;2.70;;;;;;;;;;5015629;28;20194;-71
2024/01/09 10:19:28;;;;;;;3.43;2.20;;;;;;;;;;5019032;28;20301;-71
2024/01/09 10:21:53;;;;;;;3.43;2.60;;;;;;;;;;5025450;28;20553;-71
2024/01/09 10:24:19;;;;;;;3.53;2.37;;;;;;;;;;5027063;28;20177;-71
2024/01/09 10:26:44;;;;;;;4.40;2.57;;;;;;;;;;5032695;28;20183;-71
2024/01/09 10:29:10;;;;;;;3.10;1.83;;;;;;;;;;5033485;28;20205;-72
2024/01/09 10:31:35;;;;;;;3.77;2.70;;;;;;;;;;5033977;28;20186;-70
2024/01/09 10:34:01;;;;;;;3.53;2.07;;;;;;;;;;5033234;28;20599;-70
2024/01/09 10:36:27;;;;;;;3.87;2.17;;;;;;;;;;5035129;28;20525;-71
2024/01/09 10:38:56;;;;;;;4.17;2.57;;;;;;;;;;5038844;28;20181;-70
2024/01/09 10:41:22;;;;;;;6.50;2.73;;;;;;;;;;5033065;28;20186;-70
2024/01/09 10:43:47;;;;;;;2.10;1.50;;;;;;;;;;5033627;28;20684;-71
2024/01/09 10:46:13;;;;;;;3.67;1.70;;;;;;;;;;5032686;28;20679;-71
2024/01/09 10:48:40;;;;;;;3.67;2.50;;;;;;;;;;5028701;28;20202;-72
2024/01/09 10:51:06;;;;;;;3.80;2.43;;;;;;;;;;5030910;28;20197;-70
2024/01/09 10:53:34;;;;;;;7.07;2.40;;;;;;;;;;5033271;28;20210;-71
2024/01/09 10:56:00;;;;;;;3.67;1.90;;;;;;;;;;5026732;28;20693;-72
2024/01/09 10:58:26;;;;;;;3.23;1.97;;;;;;;;;;5023773;28;20262;-71
2024/01/09 11:00:52;;;;;;;9.13;2.40;;;;;;;;;;5032772;28;20270;-71
2024/01/09 11:03:19;;;;;;;5.93;2.57;;;;;;;;;;5024488;28;20674;-72
2024/01/09 11:05:44;;;;;;;4.37;2.13;;;;;;;;;;5007740;28;20191;-74
2024/01/09 11:08:10;;;;;;;3.53;2.10;;;;;;;;;;5023152;28;20189;-72
2024/01/09 11:10:35;;;;;;;4.17;2.97;;;;;;;;;;5032934;28;20654;-71
2024/01/09 11:13:02;;;;;;;5.13;2.70;;;;;;;;;;5025478;28;20241;-71
2024/01/09 11:15:30;;;;;;;5.50;3.40;;;;;;;;;;5030639;28;20269;-72
2024/01/09 11:18:04;;;;;;;3.30;2.33;;;;;;;;;;5029199;28;20722;-72
2024/01/09 11:20:30;;;;;;;4.23;2.27;;;;;;;;;;5032213;28;20186;-72
2024/01/09 11:22:55;;;;;;;4.47;2.03;;;;;;;;;;5024325;28;20263;-71
2024/01/09 11:25:21;;;;;;;3.60;2.23;;;;;;;;;;5031557;28;20565;-73
2024/01/09 11:27:47;;;;;;;3.90;2.47;;;;;;;;;;5030375;28;20194;-71
2024/01/09 11:30:15;;;;;;;2.13;1.73;;;;;;;;;;5016238;28;20718;-71
2024/01/09 11:32:41;;;;;;;3.13;2.17;;;;;;;;;;5029617;28;20784;-71
2024/01/09 11:35:10;;;;;;;6.77;3.10;;;;;;;;;;5032042;28;20180;-72
2024/01/09 11:37:36;;;;;;;2.70;1.97;;;;;;;;;;5035232;28;20744;-72
2024/01/09 11:40:01;;;;;;;4.20;2.37;;;;;;;;;;5028345;28;20190;-72
2024/01/09 11:42:26;;;;;;;2.87;2.17;;;;;;;;;;5010391;28;20791;-71
2024/01/09 11:44:52;;;;;;;2.57;1.87;;;;;;;;;;5029262;28;20170;-71
2024/01/09 11:47:18;;;;;;;3.23;1.60;;;;;;;;;;5028913;28;20569;-72
2024/01/09 11:49:43;;;;;;;4.17;2.13;;;;;;;;;;5029914;28;20202;-72
2024/01/09 11:52:08;;;;;;;6.40;1.93;;;;;;;;;;5029978;28;20673;-73
2024/01/09 11:54:33;;;;;;;2.77;1.93;;;;;;;;;;5006058;28;20189;-71
2024/01/09 11:56:59;;;;;;;3.87;1.90;;;;;;;;;;5010575;28;20221;-71
2024/01/09 11:59:24;;;;;;;5.33;1.93;;;;;;;;;;5030755;28;20252;-71
2024/01/09 12:01:49;;;;;;;2.40;1.50;;;;;;;;;;5029783;28;20225;-72
2024/01/09 12:04:14;;;;;;;2.33;1.60;;;;;;;;;;5031970;28;20567;-71
2024/01/09 12:06:41;;;;;;;2.73;1.77;;;;;;;;;;5025670;28;20205;-71
2024/01/09 12:09:07;;;;;;;3.10;1.53;;;;;;;;;;5007396;28;20293;-71
2024/01/09 12:11:34;;;;;;;2.40;1.53;;;;;;;;;;5030519;28;20174;-71
2024/01/09 12:14:00;;;;;;;3.97;2.00;;;;;;;;;;5002354;28;20211;-71
2024/01/09 12:16:26;;;;;;;3.70;2.07;;;;;;;;;;5026043;28;20257;-72
2024/01/09 12:18:54;;;;;;;6.63;2.00;;;;;;;;;;5026619;28;20673;-71
2024/01/09 12:21:20;;;;;;;3.90;2.27;;;;;;;;;;5030413;28;20613;-71
2024/01/09 12:23:45;;;;;;;2.53;1.60;;;;;;;;;;5022317;28;20206;-71
2024/01/09 12:26:11;;;;;;;2.73;1.70;;;;;;;;;;5027684;28;20182;-71
2024/01/09 12:28:37;;;;;;;4.33;2.70;;;;;;;;;;5028426;28;20207;-71
2024/01/09 12:31:03;;;;;;;4.90;2.47;;;;;;;;;;5026572;28;20178;-70
2024/01/09 12:33:29;;;;;;;2.67;1.80;;;;;;;;;;5030968;28;20685;-71
2024/01/09 12:35:54;;;;;;;3.57;1.93;;;;;;;;;;5031204;28;20182;-71
2024/01/09 12:38:22;;;;;;;3.20;1.80;;;;;;;;;;5029281;28;20178;-70
2024/01/09 12:40:55;;;;;;;3.37;2.07;;;;;;;;;;5025811;28;20272;-72
2024/01/09 12:43:21;;;;;;;6.57;2.03;;;;;;;;;;5024187;28;20206;-72
2024/01/09 12:45:46;;;;;;;4.23;1.70;;;;;;;;;;5023279;28;20189;-71
2024/01/09 12:48:12;;;;;;;3.33;1.60;;;;;;;;;;5023611;28;20182;-71
2024/01/09 12:50:37;;;;;;;2.47;1.20;;;;;;;;;;5031577;28;20258;-71
2024/01/09 12:53:03;;;;;;;2.70;1.53;;;;;;;;;;5025617;28;20206;-70
2024/01/09 12:55:29;;;;;;;3.70;1.60;;;;;;;;;;5028726;28;20178;-71
2024/01/09 12:57:55;;;;;;;2.87;1.87;;;;;;;;;;5010854;28;20268;-72
2024/01/09 13:00:21;;;;;;;2.93;1.63;;;;;;;;;;5027883;28;20236;-71
2024/01/09 13:02:46;;;;;;;3.23;1.50;;;;;;;;;;5029647;28;20202;-71
2024/01/09 13:05:13;;;;;;;2.60;1.80;;;;;;;;;;5029063;28;20599;-71
2024/01/09 13:07:39;;;;;;;4.73;1.53;;;;;;;;;;5004262;28;20209;-71
2024/01/09 13:10:04;;;;;;;2.83;1.83;;;;;;;;;;5015120;28;20649;-71
2024/01/09 13:12:29;;;;;;;2.23;1.53;;;;;;;;;;5029989;28;20652;-71
2024/01/09 13:14:54;;;;;;;3.63;1.63;;;;;;;;;;5023611;28;20171;-71
2024/01/09 13:17:20;;;;;;;2.13;1.67;;;;;;;;;;5025667;28;20193;-71
2024/01/09 13:19:45;;;;;;;2.63;1.90;;;;;;;;;;5026458;28;20219;-71
2024/01/09 13:22:11;;;;;;;2.93;1.70;;;;;;;;;;5032239;28;20275;-71
2024/01/09 13:24:36;;;;;;;3.40;2.30;;;;;;;;;;5024755;28;20623;-71
2024/01/09 13:27:03;;;;;;;2.77;1.90;;;;;;;;;;5026547;28;20552;-71
2024/01/09 13:29:28;;;;;;;5.37;1.87;;;;;;;;;;5010300;28;20672;-71
2024/01/09 13:31:54;;;;;;;3.67;1.70;;;;;;;;;;5011228;28;20263;-71
2024/01/09 13:34:19;;;;;;;3.17;1.70;;;;;;;;;;5028709;28;20197;-71
2024/01/09 13:36:44;;;;;;;2.70;1.77;;;;;;;;;;5030910;28;20214;-72
2024/01/09 13:39:14;;;;;;;2.80;1.43;;;;;;;;;;5027166;28;20229;-71
2024/01/09 13:41:39;;;;;;;1.70;1.53;;;;;;;;;;5027528;28;20216;-71
2024/01/09 13:44:05;;;;;;;4.73;1.77;;;;;;;;;;5024449;28;20213;-71
2024/01/09 13:46:30;;;;;;;2.30;1.40;;;;;;;;;;5026567;28;20205;-71
2024/01/09 13:48:55;;;;;;;2.97;1.53;;;;;;;;;;5009521;28;20253;-72
2024/01/09 13:51:22;;;;;;;2.90;1.60;;;;;;;;;;5029262;28;20178;-72
2024/01/09 13:53:47;;;;;;;2.27;1.40;;;;;;;;;;5027067;28;20246;-72
2024/01/09 13:56:15;;;;;;;2.70;1.23;;;;;;;;;;5010562;28;20197;-71
2024/01/09 13:58:41;;;;;;;2.43;1.50;;;;;;;;;;5025018;28;20764;-71
2024/01/09 14:01:06;;;;;;;2.40;1.60;;;;;;;;;;5028886;28;20516;-70
2024/01/09 14:03:31;;;;;;;2.03;1.30;;;;;;;;;;5028786;28;20205;-71
2024/01/09 14:05:57;;;;;;;3.17;1.30;;;;;;;;;;5029079;28;20554;-71
2024/01/09 14:08:22;;;;;;;2.83;1.27;;;;;;;;;;5027836;28;20679;-71
2024/01/09 14:10:48;;;;;;;2.77;1.80;;;;;;;;;;5029305;28;20182;-71
2024/01/09 14:13:14;;;;;;;1.90;1.30;;;;;;;;;;5041356;22;20233;-70
2024/01/09 14:15:39;;;;;;;2.33;1.47;;;;;;;;;;5029371;28;20327;-70
2024/01/09 14:18:05;;;;;;;2.47;1.60;;;;;;;;;;5028908;28;20185;-70
2024/01/09 14:20:30;;;;;;;3.80;1.93;;;;;;;;;;5029717;28;20178;-68
2024/01/09 14:22:55;;;;;;;1.77;1.33;;;;;;;;;;5025819;28;20256;-68
2024/01/09 14:25:21;;;;;;;4.07;1.60;;;;;;;;;;5028542;28;20619;-70
2024/01/09 14:27:46;;;;;;;2.40;1.67;;;;;;;;;;5028166;28;20188;-70
2024/01/09 14:30:18;;;;;;;2.63;1.50;;;;;;;;;;5011494;28;20206;-70
2024/01/09 14:32:43;;;;;;;2.80;1.40;;;;;;;;;;5029639;28;20239;-70